San Diego, California
Traffic Map
Current Weather Conditions
San Diego, California
Clear
Clear
63°
Feels Like: 63°
Wind Chill: 63° Ceiling: Unl
Heat Index: 63° Visibility: 10mi
Dew Point: 52° Wind: 0mph
Humidity: 67% Direction: ° ()
Pressure: 30.06in Gusts: 0mph
Raw Report DataKSAN 220451Z 00000KT 10SM CLR 17/11 A3006 RMK AO2 SLP177 T01720111
Traffic Incident Summary
Active as of:
Severity:
Category:
InformationThere was an issue retrieving the traffic information for this location. Please try a different location or try again shortly.
Advertisements
Track Severe Weather on mobile